METAR Data
IDs: Format: Raw Decoded Include TAF

Data at: 1631 UTC 03 Dec 2021

Region: TOP
KATL 031552Z 32007KT 10SM FEW200 FEW250 19/09 A3013 RMK AO2 SLP201 T01890089

KBOS 031554Z 29013G24KT 10SM FEW048 FEW200 04/M08 A2979 RMK AO2 PK WND 30027/1542 SLP086 T00441078

KBWI 031554Z 27012G19KT 10SM BKN110 11/M01 A3003 RMK AO2 SLP170 T01111011

KCLE 031551Z 36008KT 10SM BKN023 BKN085 OVC100 03/M01 A3012 RMK AO2 SLP220 T00331006 $

KCLT 031552Z 22003KT 10SM FEW250 21/05 A3009 RMK AO2 SLP183 T02110050

KCVG 031552Z 14011KT 10SM FEW250 10/02 A3006 RMK AO2 SLP178 T01000017

KDCA 031552Z 31010KT 10SM BKN120 BKN250 11/M02 A3007 RMK AO2 SLP181 T01111017

KDEN 031553Z 21003KT 10SM SCT220 06/M01 A3024 RMK AO2 SLP216 T00561011

KDFW 031548Z 18011KT 2 1/2SM BR BKN005 BKN250 18/17 A3003 RMK AO2 SFC VIS 4 SLP162 T01830172

KDTW 031608Z 00000KT 2SM -SN BR FEW005 BKN010 OVC025 01/00 A3014 RMK AO2 SFC VIS 2 1/2 P0000 T00110000

KEWR 031551Z 32013G21KT 10SM SCT050 BKN250 09/M04 A2995 RMK AO2 SLP141 T00891044

KFLL 031553Z VRB06KT 10SM FEW023 FEW220 25/10 A3013 RMK AO2 SLP201 T02500100

KIAD 031552Z 31008KT 10SM FEW034 BKN110 BKN200 10/M01 A3007 RMK AO2 SLP181 T01001011

KIAH 031628Z 16008KT 10SM BKN015 BKN200 BKN250 23/19 A3010 RMK AO2 T02330189

KJFK 031551Z 31022G29KT 10SM SCT055 SCT160 SCT250 08/M05 A2995 RMK AO2 PK WND 31029/1549 SLP141 T00781050

KLAS 031556Z VRB03KT 10SM FEW150 FEW220 12/M04 A3014 RMK AO2 SLP199 T01171044

KLAX 031553Z 33004KT 4SM HZ OVC013 13/10 A3014 RMK AO2 SLP203 T01330100

KLGA 031551Z 32016G23KT 10SM FEW049 FEW250 08/M04 A2993 RMK AO2 SLP136 T00781044

KMCO 031553Z 33008KT 10SM SCT280 22/13 A3016 RMK AO2 SLP212 T02170128

KMDW 031553Z 11010KT 10SM SCT070 BKN130 09/M02 A3005 RMK AO2 SLP181 T00891022

KMEM 031554Z VRB05KT 10SM BKN250 21/14 A3007 RMK AO2 SLP181 T02060139 $

KMIA 031553Z 35005KT 10SM FEW030 FEW250 24/06 A3014 RMK AO2 SLP205 T02440061

KMSP 031553Z 36004KT 10SM OVC050 03/01 A3007 RMK AO2 SLP191 T00330006

KORD 031551Z 09009KT 10SM FEW014 SCT065 BKN150 08/04 A3004 RMK AO2 SLP176 T00780039

KPDX 031605Z 35005KT 10SM BKN006 OVC014 03/01 A3029 RMK AO2 T00280011

KPHL 031554Z 29010KT 10SM FEW050 SCT180 BKN280 09/M03 A3001 RMK AO2 SLP162 T00941033

KPHX 031551Z 12006KT 10SM CLR 17/03 A3005 RMK AO2 SLP167 T01670028

KPIT 031551Z 31008KT 10SM FEW030 BKN065 OVC110 04/M02 A3010 RMK AO2 SLP207 T00441017

KSAN 031551Z 04004KT 7SM BKN016 14/10 A3015 RMK AO2 SLP208 T01390100

KSEA 031553Z 05009KT 10SM FEW005 BKN150 03/01 A3033 RMK AO2 SLP279 T00330006

KSFO 031556Z 19003KT 4SM BR FEW003 OVC007 12/10 A3013 RMK AO2 SLP202 T01170100

KSLC 031554Z 22004KT 8SM FEW220 02/M01 A3025 RMK AO2 SLP248 T00171006

KSTL 031551Z 25008KT 10SM FEW250 17/07 A2993 RMK AO2 SLP134 T01720067

KTPA 031553Z 35008KT 8SM FEW020 FEW250 22/15 A3018 RMK AO2 SLP219 T02220150